createdAt,value
2023-03-07T00:01:19.504Z,97624.03
2023-03-07T00:34:03.136Z,97654.22
2023-03-07T00:42:54.078Z,97651.19
2023-03-07T01:00:41.028Z,97662.91
2023-03-07T01:12:21.263Z,97668.59
2023-03-07T01:14:55.548Z,97669.38
2023-03-07T01:45:42.434Z,97709.72
2023-03-07T01:51:23.491Z,97689.34
2023-03-07T02:00:35.841Z,97724.41
2023-03-07T02:04:05.438Z,97710.44
2023-03-07T04:44:54.905Z,97812.34
2023-03-07T04:54:16.075Z,97811.75
2023-03-07T05:03:46.525Z,97838.47
2023-03-07T05:06:19.504Z,97803.13
2023-03-07T08:40:07.769Z,97993.97
2023-03-07T08:56:14.769Z,97974.91
2023-03-07T08:59:28.716Z,97973.38
2023-03-07T09:05:59.534Z,97967.75
2023-03-07T09:08:27.665Z,97994.38
2023-03-07T09:14:12.124Z,97970.06
2023-03-07T09:16:42.986Z,97954.31
2023-03-07T09:36:52.946Z,97977.66
2023-03-07T09:42:19.393Z,97990.94
2023-03-07T09:44:59.137Z,97995.63
2023-03-07T09:47:55.605Z,97998.19
2023-03-07T09:50:56.805Z,97981.63
2023-03-07T09:57:01.594Z,97967.66
2023-03-07T09:59:41.670Z,97988.81
2023-03-07T10:19:07.279Z,97976.19
2023-03-07T10:22:07.076Z,98003.28
2023-03-07T10:25:08.804Z,97995.44
2023-03-07T10:28:25.804Z,98002.81
2023-03-07T10:31:03.809Z,97983.50
2023-03-07T12:13:00.299Z,98036.88
2023-03-07T12:15:55.265Z,98002.81
2023-03-07T12:18:37.470Z,98033.28
2023-03-07T12:24:57.110Z,97998.97
2023-03-07T12:27:48.761Z,97997.13
2023-03-07T12:30:38.508Z,98010.16
2023-03-07T12:40:04.544Z,98026.19
2023-03-07T12:42:41.020Z,98022.19
2023-03-07T12:45:12.478Z,98029.56
2023-03-07T12:48:32.260Z,98022.44
2023-03-07T12:51:10.154Z,97989.88
2023-03-07T12:53:46.955Z,98005.97
2023-03-07T12:56:31.106Z,98006.53
2023-03-07T13:02:50.357Z,97989.91
2023-03-07T13:05:51.592Z,98009.53
2023-03-07T13:08:24.739Z,98032.28
2023-03-07T13:10:54.432Z,98017.69
2023-03-07T13:16:50.293Z,98000.16
2023-03-07T13:19:44.087Z,97995.94
2023-03-07T13:22:20.049Z,98012.59
2023-03-07T13:25:27.309Z,98018.94
2023-03-07T13:27:59.678Z,98018.41
2023-03-07T13:30:34.985Z,98023.09
2023-03-07T13:33:07.723Z,98058.25
2023-03-07T13:35:56.229Z,98024.72
2023-03-07T13:38:53.925Z,97989.09
2023-03-07T13:41:51.822Z,98024.84
2023-03-07T13:44:38.212Z,98026.03
2023-03-07T16:03:56.046Z,98013.38
2023-03-07T16:53:58.237Z,98066.56
2023-03-07T17:03:25.845Z,98066.19
2023-03-07T17:27:17.821Z,98060.09
2023-03-07T17:40:20.560Z,98049.16
2023-03-07T19:19:07.718Z,98045.91
2023-03-07T19:21:38.088Z,98079.56
2023-03-07T19:27:06.753Z,98084.84
2023-03-07T19:29:35.424Z,98081.06
2023-03-07T19:32:03.130Z,98067.81
2023-03-07T19:34:30.957Z,98060.63
2023-03-07T19:36:58.608Z,98084.13
2023-03-07T19:39:26.258Z,98077.25
2023-03-07T19:41:54.292Z,98088.66
2023-03-07T19:44:25.211Z,98070.44
2023-03-07T19:46:53.358Z,98089.41
2023-03-07T19:49:23.302Z,98089.41
2023-03-07T19:51:50.886Z,98093.19
2023-03-07T19:55:05.048Z,98090.16
2023-03-07T19:57:39.520Z,98072.38
2023-03-07T20:00:21.328Z,98032.28
2023-03-07T20:02:48.882Z,98034.94
2023-03-07T20:05:17.188Z,98047.41
2023-03-07T20:07:49.353Z,98054.59
2023-03-07T20:10:17.006Z,98040.63
2023-03-07T20:12:46.353Z,98047.78
2023-03-07T20:19:11.128Z,98057.25
2023-03-07T20:21:42.888Z,98035.69
2023-03-07T20:24:17.857Z,98043.22
2023-03-07T20:26:47.725Z,98053.44
2023-03-07T20:32:41.564Z,98011.50
2023-03-07T20:35:12.336Z,97996.38
2023-03-07T20:37:41.024Z,98025.13
2023-03-07T20:40:10.224Z,98011.50
2023-03-07T20:42:40.482Z,98019.06
2023-03-07T20:45:10.118Z,98004.31
2023-03-07T20:47:38.690Z,97998.66
2023-03-07T20:50:06.855Z,98004.69
2023-03-07T20:52:40.953Z,97999.41
2023-03-07T20:55:11.892Z,98015.28
2023-03-07T20:57:42.660Z,98000.53
2023-03-07T21:00:13.192Z,98004.31
2023-03-07T21:02:44.546Z,97996.34
2023-03-07T21:05:14.154Z,97999.00
2023-03-07T21:07:41.760Z,97989.19
2023-03-07T21:10:56.705Z,98007.28
2023-03-07T21:13:45.720Z,98006.16
2023-03-07T21:16:25.613Z,97967.59
2023-03-07T21:18:53.672Z,97981.97
2023-03-07T21:21:25.358Z,97991.78
2023-03-07T21:24:02.093Z,98003.16
2023-03-07T21:30:01.581Z,97967.28
2023-03-07T21:32:31.656Z,97989.19
2023-03-07T21:35:01.466Z,97969.16
2023-03-07T21:37:47.803Z,97968.78
2023-03-07T21:40:16.705Z,97963.13
2023-03-07T21:42:46.959Z,97955.19
2023-03-07T21:45:17.353Z,97955.53
2023-03-07T21:47:47.238Z,97971.44
2023-03-07T21:50:16.186Z,97966.91
2023-03-07T21:56:21.683Z,97972.19
2023-03-07T21:58:57.992Z,97952.88
2023-03-07T22:01:30.616Z,97955.13
2023-03-07T22:04:01.406Z,97950.97
2023-03-07T22:06:29.649Z,97952.06
2023-03-07T22:09:01.155Z,97931.63
2023-03-07T22:11:30.287Z,97935.41
2023-03-07T22:17:24.241Z,97921.50
2023-03-07T22:19:53.622Z,97929.50
2023-03-07T22:22:24.696Z,97920.44
2023-03-07T22:24:53.225Z,97889.81
2023-03-07T22:27:22.710Z,97917.00
